createdAt,value
2022-10-16T00:01:26.006Z,8.98
2022-10-16T00:03:52.881Z,8.99
2022-10-16T00:06:22.153Z,9.01
2022-10-16T00:08:49.579Z,9.01
2022-10-16T00:11:19.627Z,8.95
2022-10-16T00:13:47.904Z,8.90
2022-10-16T00:16:15.918Z,8.81
2022-10-16T00:18:42.784Z,8.79
2022-10-16T00:21:14.878Z,8.68
2022-10-16T00:23:42.120Z,8.64
2022-10-16T00:26:14.343Z,8.52
2022-10-16T00:28:42.046Z,8.41
2022-10-16T00:31:11.831Z,8.35
2022-10-16T00:33:40.572Z,8.28
2022-10-16T00:36:09.309Z,8.26
2022-10-16T00:38:36.107Z,8.28
2022-10-16T00:41:03.092Z,8.35
2022-10-16T00:43:38.361Z,8.43
2022-10-16T00:46:28.621Z,8.48
2022-10-16T00:49:05.798Z,8.52
2022-10-16T00:51:42.226Z,8.58
2022-10-16T00:54:14.366Z,8.60
2022-10-16T00:56:42.989Z,8.53
2022-10-16T00:59:31.747Z,8.47
2022-10-16T01:01:59.967Z,8.41
2022-10-16T01:04:27.530Z,8.40
2022-10-16T01:07:16.430Z,8.41
2022-10-16T01:10:03.415Z,8.40
2022-10-16T01:12:49.216Z,8.35
2022-10-16T01:15:26.516Z,8.29
2022-10-16T01:18:12.493Z,8.27
2022-10-16T01:20:46.325Z,8.22
2022-10-16T01:23:22.858Z,8.21
2022-10-16T01:26:20.476Z,8.17
2022-10-16T01:29:02.657Z,8.16
2022-10-16T01:31:34.103Z,8.16
2022-10-16T01:34:09.719Z,8.11
2022-10-16T01:36:40.934Z,8.15
2022-10-16T01:39:10.879Z,8.19
2022-10-16T01:41:48.083Z,8.24
2022-10-16T01:44:20.791Z,8.32
2022-10-16T01:46:51.296Z,8.43
2022-10-16T01:49:19.684Z,8.50
2022-10-16T01:51:49.559Z,8.63
2022-10-16T01:54:19.888Z,8.77
2022-10-16T01:56:49.717Z,8.89
2022-10-16T01:59:21.913Z,9.03
2022-10-16T02:01:53.909Z,9.18
2022-10-16T02:04:37.307Z,9.31
2022-10-16T02:07:04.563Z,9.44
2022-10-16T02:09:34.688Z,9.55
2022-10-16T02:12:08.654Z,9.67
2022-10-16T02:14:38.971Z,9.81
2022-10-16T02:17:17.667Z,9.95
2022-10-16T02:19:48.218Z,10.05
2022-10-16T02:22:37.339Z,10.14
2022-10-16T02:25:04.228Z,10.19
2022-10-16T02:27:44.031Z,10.27
2022-10-16T02:30:19.444Z,10.33
2022-10-16T02:32:49.161Z,10.39
2022-10-16T02:35:19.729Z,10.42
2022-10-16T02:37:47.782Z,10.46
2022-10-16T02:40:15.699Z,10.48
2022-10-16T02:42:42.796Z,10.57
2022-10-16T02:45:11.418Z,10.64
2022-10-16T02:47:38.787Z,10.71
2022-10-16T02:50:06.293Z,10.82
2022-10-16T02:52:33.488Z,10.94
2022-10-16T02:55:00.549Z,11.08
2022-10-16T02:57:28.187Z,11.16
2022-10-16T02:59:55.564Z,11.29
2022-10-16T03:02:22.362Z,11.38
2022-10-16T03:04:49.386Z,11.45
2022-10-16T03:07:16.439Z,11.49
2022-10-16T03:09:43.663Z,11.58
2022-10-16T03:12:10.511Z,11.64
2022-10-16T03:14:37.658Z,11.69
2022-10-16T03:17:04.432Z,11.69
2022-10-16T03:19:31.357Z,11.73
2022-10-16T03:21:58.389Z,11.79
2022-10-16T03:24:25.318Z,11.78
2022-10-16T03:26:52.071Z,11.77
2022-10-16T03:29:19.084Z,11.75
2022-10-16T03:31:45.953Z,11.75
2022-10-16T03:34:12.971Z,11.78
2022-10-16T03:36:39.739Z,11.77
2022-10-16T03:39:06.753Z,11.78
2022-10-16T03:41:33.559Z,11.81
2022-10-16T03:44:00.524Z,11.80
2022-10-16T03:46:27.339Z,11.80
2022-10-16T03:48:54.338Z,11.81
2022-10-16T03:51:21.114Z,11.82
2022-10-16T03:53:48.191Z,11.81
2022-10-16T03:56:15.010Z,11.80
2022-10-16T03:58:42.175Z,11.80
2022-10-16T04:01:09.086Z,11.74
2022-10-16T04:03:36.114Z,11.73
2022-10-16T04:06:03.034Z,11.71
2022-10-16T04:08:30.124Z,11.73
2022-10-16T04:10:56.911Z,11.72
2022-10-16T04:13:23.964Z,11.71
2022-10-16T04:15:50.727Z,11.69
2022-10-16T04:18:17.689Z,11.65
2022-10-16T04:20:44.450Z,11.63
2022-10-16T04:23:11.408Z,11.60
2022-10-16T04:25:38.380Z,11.57
2022-10-16T04:28:05.379Z,11.56
2022-10-16T04:30:32.234Z,11.56
2022-10-16T04:32:59.196Z,11.53
2022-10-16T04:35:25.946Z,11.52
2022-10-16T04:37:52.967Z,11.49
2022-10-16T04:40:19.859Z,11.47
2022-10-16T04:42:46.824Z,11.48
2022-10-16T04:45:16.433Z,11.47
2022-10-16T04:47:44.247Z,11.49
2022-10-16T04:50:10.992Z,11.48
2022-10-16T04:52:38.023Z,11.48
2022-10-16T04:55:05.406Z,11.48
2022-10-16T04:57:34.305Z,11.52
2022-10-16T05:00:01.081Z,11.53
2022-10-16T05:02:28.154Z,11.56
2022-10-16T05:04:55.005Z,11.57
2022-10-16T05:07:22.001Z,11.64
2022-10-16T05:09:48.799Z,11.74
2022-10-16T05:12:15.833Z,11.89
2022-10-16T05:14:42.606Z,12.07
2022-10-16T05:17:09.729Z,12.26
2022-10-16T05:19:36.543Z,12.52
2022-10-16T05:22:04.110Z,12.81
2022-10-16T05:24:30.926Z,13.15
2022-10-16T05:26:58.019Z,13.38
2022-10-16T05:29:25.058Z,13.56
2022-10-16T05:31:53.792Z,13.78
2022-10-16T05:34:21.568Z,13.91
2022-10-16T05:36:48.650Z,13.88
2022-10-16T05:39:16.911Z,13.77
2022-10-16T05:41:44.649Z,13.68
2022-10-16T05:44:11.818Z,13.59
2022-10-16T05:46:38.844Z,13.52
2022-10-16T05:49:05.742Z,13.48
2022-10-16T05:51:32.735Z,13.46
2022-10-16T05:53:59.578Z,13.44
2022-10-16T05:56:26.621Z,13.46
2022-10-16T05:58:53.929Z,13.48
2022-10-16T06:01:25.393Z,13.50
2022-10-16T06:03:53.229Z,13.51
2022-10-16T06:06:23.872Z,13.56
2022-10-16T06:08:50.927Z,13.54
2022-10-16T06:11:20.287Z,13.57
2022-10-16T06:13:54.623Z,13.62
2022-10-16T06:16:22.131Z,13.64
2022-10-16T06:18:51.388Z,13.66
2022-10-16T06:21:20.865Z,13.67
2022-10-16T06:23:48.604Z,13.73
2022-10-16T06:26:19.255Z,13.75
2022-10-16T06:28:46.137Z,13.83
2022-10-16T06:31:13.725Z,13.85
2022-10-16T06:33:41.137Z,13.93
2022-10-16T06:36:10.885Z,13.99
2022-10-16T06:38:38.664Z,14.07
2022-10-16T06:41:07.167Z,14.17
2022-10-16T06:43:36.370Z,14.32
2022-10-16T06:46:05.755Z,14.33
2022-10-16T06:48:32.603Z,14.43
2022-10-16T06:51:09.427Z,14.56
2022-10-16T06:53:49.164Z,14.62
2022-10-16T06:56:28.521Z,14.68
2022-10-16T06:58:55.375Z,14.74
2022-10-16T07:01:25.008Z,14.83
2022-10-16T07:03:51.625Z,14.89
2022-10-16T07:06:20.674Z,15.35
2022-10-16T07:08:48.436Z,15.58
2022-10-16T07:11:21.116Z,15.61
2022-10-16T07:13:52.700Z,15.64
2022-10-16T07:16:26.072Z,15.61
2022-10-16T07:18:59.217Z,15.63
2022-10-16T07:21:29.732Z,15.76
2022-10-16T07:24:02.461Z,15.82
2022-10-16T07:26:35.488Z,15.93
2022-10-16T07:29:02.513Z,16.00
2022-10-16T07:31:29.605Z,16.11
2022-10-16T07:33:58.594Z,16.16
2022-10-16T07:36:25.766Z,16.27
2022-10-16T07:38:55.452Z,16.35
2022-10-16T07:41:25.848Z,16.50
2022-10-16T07:43:54.279Z,16.70
2022-10-16T07:46:23.303Z,16.86
2022-10-16T07:48:51.442Z,16.89
2022-10-16T07:51:20.889Z,16.88
2022-10-16T07:53:48.145Z,16.82
2022-10-16T07:56:16.555Z,16.76
2022-10-16T07:58:43.894Z,16.76
2022-10-16T08:01:14.157Z,16.74
2022-10-16T08:03:50.020Z,16.70
2022-10-16T08:06:20.778Z,16.69
2022-10-16T08:08:50.785Z,16.71
2022-10-16T08:11:18.070Z,16.68
2022-10-16T08:13:44.913Z,16.67
2022-10-16T08:16:12.271Z,16.68
2022-10-16T08:18:40.886Z,16.70
2022-10-16T08:21:16.863Z,16.74
2022-10-16T08:23:45.858Z,16.76
2022-10-16T08:26:13.876Z,16.84
2022-10-16T08:28:40.954Z,16.94
2022-10-16T08:31:10.495Z,17.00
2022-10-16T08:33:37.686Z,17.11
2022-10-16T08:36:06.439Z,17.11
2022-10-16T08:38:34.552Z,17.28
2022-10-16T08:41:13.945Z,17.32
2022-10-16T08:43:56.049Z,17.55
2022-10-16T08:46:31.365Z,18.09
2022-10-16T08:49:00.473Z,18.92
2022-10-16T08:51:33.565Z,19.65
2022-10-16T08:54:23.911Z,20.02
2022-10-16T08:56:50.975Z,20.15
2022-10-16T08:59:18.451Z,19.90
2022-10-16T09:01:48.349Z,19.85
2022-10-16T09:04:38.975Z,19.84
2022-10-16T09:07:17.563Z,19.83
2022-10-16T09:10:01.899Z,19.92
2022-10-16T09:12:33.063Z,19.77
2022-10-16T09:15:19.089Z,19.56
2022-10-16T09:18:13.663Z,19.76
2022-10-16T09:20:49.275Z,20.25
2022-10-16T09:23:32.023Z,21.12
2022-10-16T09:26:00.155Z,21.83
2022-10-16T09:28:27.460Z,22.19
2022-10-16T09:30:55.312Z,22.67
2022-10-16T09:33:29.318Z,23.28
2022-10-16T09:35:59.817Z,23.82
2022-10-16T09:38:37.560Z,23.51
2022-10-16T09:41:22.057Z,23.77
2022-10-16T09:43:56.788Z,24.15
2022-10-16T09:46:23.501Z,24.06
2022-10-16T09:48:52.802Z,24.66
2022-10-16T09:51:32.456Z,24.87
2022-10-16T09:54:22.704Z,24.23
2022-10-16T09:56:53.000Z,23.99
2022-10-16T09:59:25.077Z,24.01
2022-10-16T10:01:56.404Z,23.52
2022-10-16T10:04:27.103Z,23.03
2022-10-16T10:06:56.879Z,22.50
2022-10-16T10:09:25.387Z,22.51
2022-10-16T10:11:55.063Z,22.17
2022-10-16T10:14:41.187Z,21.58
2022-10-16T10:17:07.896Z,21.19
2022-10-16T10:19:51.586Z,20.79
2022-10-16T10:22:46.874Z,20.71
2022-10-16T10:25:13.898Z,20.85
2022-10-16T10:27:52.174Z,21.04
2022-10-16T10:30:28.815Z,21.23
2022-10-16T10:33:01.602Z,21.23
2022-10-16T10:35:43.019Z,21.01
2022-10-16T10:38:36.921Z,20.94
2022-10-16T10:41:44.495Z,21.37
2022-10-16T10:44:29.766Z,21.62
2022-10-16T10:47:18.143Z,21.77
2022-10-16T10:49:54.482Z,21.64
2022-10-16T10:53:15.525Z,21.82
2022-10-16T10:55:52.362Z,22.48
2022-10-16T10:58:45.404Z,23.09
2022-10-16T11:01:15.132Z,23.38
2022-10-16T11:04:04.450Z,23.43
2022-10-16T11:06:55.604Z,24.18
2022-10-16T11:09:54.725Z,24.93
2022-10-16T11:12:28.718Z,25.57
2022-10-16T11:15:18.985Z,25.56
2022-10-16T11:17:58.710Z,25.85
2022-10-16T11:20:29.620Z,25.87
2022-10-16T11:23:10.269Z,25.52
2022-10-16T11:25:37.343Z,25.20
2022-10-16T11:28:18.098Z,24.71
2022-10-16T11:30:51.475Z,24.31
2022-10-16T11:33:32.690Z,24.27
2022-10-16T11:36:08.707Z,24.40
2022-10-16T11:38:42.445Z,24.35
2022-10-16T11:41:35.886Z,23.64
2022-10-16T11:44:08.401Z,22.77
2022-10-16T11:46:52.622Z,22.49
2022-10-16T11:49:29.424Z,22.40
2022-10-16T11:52:21.276Z,22.00
2022-10-16T11:54:58.441Z,21.75
2022-10-16T11:58:02.247Z,21.88
2022-10-16T12:00:42.719Z,21.57
2022-10-16T12:03:22.772Z,21.16
2022-10-16T12:05:58.930Z,20.72
2022-10-16T12:08:26.844Z,20.59
2022-10-16T12:10:53.891Z,20.55
2022-10-16T12:13:30.193Z,20.73
2022-10-16T12:16:12.605Z,20.73
2022-10-16T12:18:45.767Z,20.73
2022-10-16T12:21:16.724Z,20.65
2022-10-16T12:23:53.155Z,20.47
2022-10-16T12:26:32.728Z,20.33
2022-10-16T12:29:32.135Z,20.34
2022-10-16T12:31:59.269Z,20.82
2022-10-16T12:34:33.878Z,21.18
2022-10-16T12:37:26.341Z,21.65
2022-10-16T12:39:55.628Z,22.08
2022-10-16T12:42:42.504Z,22.11
2022-10-16T12:45:26.017Z,22.35
2022-10-16T12:47:55.235Z,22.67
2022-10-16T12:50:36.645Z,22.71
2022-10-16T12:53:17.820Z,22.93
2022-10-16T12:56:15.969Z,22.96
2022-10-16T12:58:51.553Z,23.11
2022-10-16T13:01:21.501Z,23.11
2022-10-16T13:04:12.536Z,23.06
2022-10-16T13:07:10.481Z,23.55
2022-10-16T13:09:53.148Z,23.29
2022-10-16T13:12:35.290Z,23.31
2022-10-16T13:15:19.969Z,23.10
2022-10-16T13:18:13.538Z,23.14
2022-10-16T13:21:04.904Z,23.35
2022-10-16T13:23:43.804Z,23.27
2022-10-16T13:26:19.418Z,23.16
2022-10-16T13:28:46.819Z,23.00
2022-10-16T13:31:33.259Z,22.88
2022-10-16T13:34:01.823Z,22.89
2022-10-16T13:36:37.233Z,22.71
2022-10-16T13:39:13.055Z,22.57
2022-10-16T13:41:39.999Z,22.24
2022-10-16T13:44:16.746Z,22.03
2022-10-16T13:46:43.621Z,21.67
2022-10-16T13:49:17.058Z,21.23
2022-10-16T13:51:56.238Z,20.89
2022-10-16T13:54:24.521Z,20.68
2022-10-16T13:57:03.027Z,20.48
2022-10-16T13:59:39.675Z,20.40
2022-10-16T14:02:26.357Z,20.26
2022-10-16T14:04:55.022Z,20.12
2022-10-16T14:07:32.175Z,19.85
2022-10-16T14:10:04.514Z,19.56
2022-10-16T14:12:31.828Z,19.40
2022-10-16T14:15:01.214Z,19.28
2022-10-16T14:17:34.719Z,19.07
2022-10-16T14:20:07.041Z,18.93
2022-10-16T14:22:34.542Z,18.77
2022-10-16T14:25:03.430Z,18.69
2022-10-16T14:27:33.725Z,18.56
2022-10-16T14:30:13.589Z,18.40
2022-10-16T14:32:43.260Z,18.31
2022-10-16T14:35:32.979Z,18.23
2022-10-16T14:38:01.849Z,18.16
2022-10-16T14:40:34.918Z,18.07
2022-10-16T14:43:03.824Z,18.01
2022-10-16T14:45:34.874Z,17.92
2022-10-16T14:48:06.070Z,17.82
2022-10-16T14:50:33.262Z,17.74
2022-10-16T14:53:00.153Z,17.70
2022-10-16T14:55:27.408Z,17.63
2022-10-16T14:57:58.222Z,17.51
2022-10-16T15:00:28.101Z,17.39
2022-10-16T15:02:54.838Z,17.26
2022-10-16T15:05:27.378Z,17.14
2022-10-16T15:07:56.447Z,17.09
2022-10-16T15:10:25.311Z,17.00
2022-10-16T15:12:52.960Z,16.87
2022-10-16T15:15:35.533Z,16.75
2022-10-16T15:18:03.665Z,16.63
2022-10-16T15:20:34.833Z,16.50
2022-10-16T15:23:04.470Z,16.39
2022-10-16T15:25:47.289Z,16.33
2022-10-16T15:28:15.491Z,16.26
2022-10-16T15:30:43.357Z,16.27
2022-10-16T15:33:14.794Z,16.20
2022-10-16T15:35:41.889Z,16.17
2022-10-16T15:38:13.630Z,16.13
2022-10-16T15:40:41.706Z,16.05
2022-10-16T15:43:09.027Z,16.00
2022-10-16T15:45:36.221Z,15.94
2022-10-16T15:48:03.140Z,15.90
2022-10-16T15:50:31.797Z,15.87
2022-10-16T15:52:58.984Z,15.85
2022-10-16T15:55:26.012Z,15.80
2022-10-16T15:57:52.843Z,15.73
2022-10-16T16:00:26.491Z,15.71
2022-10-16T16:02:54.926Z,15.67
2022-10-16T16:05:23.064Z,15.64
2022-10-16T16:07:50.082Z,15.61
2022-10-16T16:10:17.703Z,15.55
2022-10-16T16:12:50.323Z,15.57
2022-10-16T16:15:17.531Z,15.54
2022-10-16T16:17:45.195Z,15.47
2022-10-16T16:20:13.180Z,15.39
2022-10-16T16:22:40.209Z,15.32
2022-10-16T16:25:07.480Z,15.22
2022-10-16T16:27:35.218Z,15.14
2022-10-16T16:30:04.582Z,15.10
2022-10-16T16:32:31.880Z,15.07
2022-10-16T16:34:58.857Z,15.10
2022-10-16T16:37:25.913Z,15.08
2022-10-16T16:39:55.367Z,15.07
2022-10-16T16:42:22.533Z,15.10
2022-10-16T16:44:49.480Z,15.10
2022-10-16T16:47:16.243Z,15.13
2022-10-16T16:49:43.319Z,15.11
2022-10-16T16:52:10.105Z,15.09
2022-10-16T16:54:37.179Z,15.03
2022-10-16T16:57:05.213Z,15.02
2022-10-16T16:59:33.823Z,14.96
2022-10-16T17:02:01.227Z,14.88
2022-10-16T17:04:28.322Z,14.87
2022-10-16T17:06:56.113Z,14.84
2022-10-16T17:09:23.345Z,14.78
2022-10-16T17:11:50.150Z,14.73
2022-10-16T17:14:17.219Z,14.62
2022-10-16T17:16:48.672Z,14.55
2022-10-16T17:19:18.813Z,14.51
2022-10-16T17:21:46.473Z,14.41
2022-10-16T17:24:13.472Z,14.37
2022-10-16T17:26:41.562Z,14.36
2022-10-16T17:29:12.411Z,14.37
2022-10-16T17:31:39.359Z,14.37
2022-10-16T17:34:08.619Z,14.35
2022-10-16T17:36:37.861Z,14.32
2022-10-16T17:39:09.581Z,14.34
2022-10-16T17:41:37.167Z,14.33
2022-10-16T17:44:05.714Z,14.32
2022-10-16T17:46:36.873Z,14.30
2022-10-16T17:49:07.234Z,14.32
2022-10-16T17:51:34.099Z,14.31
2022-10-16T17:54:01.634Z,14.28
2022-10-16T17:56:29.831Z,14.25
2022-10-16T17:59:01.928Z,14.21
2022-10-16T18:01:37.430Z,14.17
2022-10-16T18:04:09.395Z,14.17
2022-10-16T18:06:37.593Z,14.19
2022-10-16T18:09:05.976Z,14.22
2022-10-16T18:11:32.893Z,14.20
2022-10-16T18:14:00.405Z,14.22
2022-10-16T18:16:29.582Z,14.20
2022-10-16T18:18:57.955Z,14.17
2022-10-16T18:21:27.561Z,14.10
2022-10-16T18:23:55.200Z,14.08
2022-10-16T18:26:23.030Z,14.05
2022-10-16T18:28:54.296Z,14.04
2022-10-16T18:31:23.048Z,14.03
2022-10-16T18:33:51.395Z,14.03
2022-10-16T18:36:29.803Z,13.98
2022-10-16T18:38:57.561Z,13.93
2022-10-16T18:41:25.196Z,13.88
2022-10-16T18:43:52.674Z,13.82
2022-10-16T18:46:21.850Z,13.75
2022-10-16T18:48:49.132Z,13.67
2022-10-16T18:51:19.984Z,13.66
2022-10-16T18:53:50.280Z,13.71
2022-10-16T18:56:18.999Z,13.72
2022-10-16T18:58:48.644Z,13.79
2022-10-16T19:01:20.986Z,13.81
2022-10-16T19:04:09.587Z,13.81
2022-10-16T19:06:39.838Z,13.83
2022-10-16T19:09:08.458Z,13.82
2022-10-16T19:11:39.166Z,13.79
2022-10-16T19:14:08.907Z,13.79
2022-10-16T19:16:36.232Z,13.76
2022-10-16T19:19:06.587Z,13.73
2022-10-16T19:21:36.671Z,13.70
2022-10-16T19:24:04.268Z,13.68
2022-10-16T19:26:33.382Z,13.68
2022-10-16T19:29:04.692Z,13.68
2022-10-16T19:31:31.956Z,13.72
2022-10-16T19:34:01.156Z,13.75
2022-10-16T19:36:31.276Z,13.79
2022-10-16T19:39:00.613Z,13.80
2022-10-16T19:41:29.399Z,13.82
2022-10-16T19:44:00.941Z,13.84
2022-10-16T19:46:27.948Z,13.88
2022-10-16T19:49:01.008Z,13.90
2022-10-16T19:51:28.919Z,13.91
2022-10-16T19:53:58.705Z,13.93
2022-10-16T19:56:27.681Z,13.98
2022-10-16T19:58:56.018Z,13.96
2022-10-16T20:01:23.694Z,13.96
2022-10-16T20:03:50.904Z,13.92
2022-10-16T20:06:19.405Z,13.89
2022-10-16T20:08:48.351Z,13.85
2022-10-16T20:11:18.074Z,13.82
2022-10-16T20:13:45.254Z,13.82
2022-10-16T20:16:13.962Z,13.83
2022-10-16T20:18:41.747Z,13.80
2022-10-16T20:21:14.640Z,13.82
2022-10-16T20:23:42.180Z,13.83
2022-10-16T20:26:11.578Z,13.85
2022-10-16T20:28:40.618Z,13.86
2022-10-16T20:31:11.235Z,13.86
2022-10-16T20:33:38.398Z,13.84
2022-10-16T20:36:10.240Z,13.81
2022-10-16T20:38:37.706Z,13.79
2022-10-16T20:41:05.332Z,13.78
2022-10-16T20:43:32.390Z,13.78
2022-10-16T20:46:01.623Z,13.83
2022-10-16T20:48:28.769Z,13.80
2022-10-16T20:50:55.578Z,13.87
2022-10-16T20:53:22.859Z,13.92
2022-10-16T20:55:49.706Z,13.92
2022-10-16T20:58:17.534Z,13.97
2022-10-16T21:00:44.963Z,14.02
2022-10-16T21:03:12.383Z,14.02
2022-10-16T21:05:42.626Z,14.01
2022-10-16T21:08:09.869Z,14.02
2022-10-16T21:10:36.787Z,13.99
2022-10-16T21:13:04.027Z,13.98
2022-10-16T21:15:30.863Z,13.95
2022-10-16T21:17:57.876Z,13.90
2022-10-16T21:20:24.741Z,13.87
2022-10-16T21:22:51.758Z,13.87
2022-10-16T21:25:18.747Z,13.82
2022-10-16T21:27:46.053Z,13.82
2022-10-16T21:30:13.108Z,13.79
2022-10-16T21:32:40.211Z,13.74
2022-10-16T21:35:07.628Z,13.68
2022-10-16T21:37:35.245Z,13.64
2022-10-16T21:40:02.410Z,13.64
2022-10-16T21:42:30.101Z,13.67
2022-10-16T21:44:57.118Z,13.75
2022-10-16T21:47:24.093Z,13.83
2022-10-16T21:49:50.908Z,13.85
2022-10-16T21:52:17.911Z,13.96
2022-10-16T21:54:44.652Z,14.07
2022-10-16T21:57:11.650Z,14.12
2022-10-16T21:59:38.552Z,14.14
2022-10-16T22:02:06.160Z,14.18
2022-10-16T22:04:33.203Z,14.23
2022-10-16T22:07:00.285Z,14.25
2022-10-16T22:09:27.161Z,14.24
2022-10-16T22:11:54.141Z,14.26
2022-10-16T22:14:22.108Z,14.32
2022-10-16T22:16:50.021Z,14.38
2022-10-16T22:19:19.564Z,14.42
2022-10-16T22:21:47.862Z,14.39
2022-10-16T22:24:18.089Z,14.37
2022-10-16T22:26:45.420Z,14.37
2022-10-16T22:29:13.628Z,14.32
2022-10-16T22:31:40.699Z,14.31
2022-10-16T22:34:07.684Z,14.35
2022-10-16T22:36:35.033Z,14.35
2022-10-16T22:39:02.904Z,14.31
2022-10-16T22:41:30.192Z,14.26
2022-10-16T22:43:57.065Z,14.24
2022-10-16T22:46:27.746Z,14.19
2022-10-16T22:48:56.021Z,14.23
2022-10-16T22:51:24.420Z,14.25
2022-10-16T22:53:51.507Z,14.21
2022-10-16T22:56:20.932Z,14.14
2022-10-16T22:58:47.805Z,14.13
2022-10-16T23:01:26.922Z,14.08
2022-10-16T23:03:54.244Z,14.04
2022-10-16T23:06:21.381Z,14.04
2022-10-16T23:08:56.363Z,14.03
2022-10-16T23:11:24.082Z,14.02
2022-10-16T23:13:50.959Z,14.02
2022-10-16T23:16:19.875Z,14.05
2022-10-16T23:18:47.324Z,14.04
2022-10-16T23:21:20.974Z,14.02
2022-10-16T23:23:48.439Z,13.99
2022-10-16T23:26:22.503Z,13.96
2022-10-16T23:28:49.906Z,13.98
2022-10-16T23:31:18.149Z,14.00
2022-10-16T23:33:45.170Z,13.97
2022-10-16T23:36:14.839Z,13.95
2022-10-16T23:38:43.328Z,13.91
2022-10-16T23:41:10.864Z,13.89
2022-10-16T23:43:38.111Z,13.86
2022-10-16T23:46:07.010Z,13.81
2022-10-16T23:48:34.353Z,13.76
2022-10-16T23:51:01.442Z,13.76
2022-10-16T23:53:28.205Z,13.70
2022-10-16T23:55:55.197Z,13.65
2022-10-16T23:58:22.752Z,13.61
